createdAt,value
2023-02-11T00:01:36.154Z,92.30
2023-02-11T00:04:05.726Z,92.50
2023-02-11T00:06:36.266Z,92.60
2023-02-11T00:09:06.746Z,92.70
2023-02-11T00:11:34.976Z,92.30
2023-02-11T00:14:07.829Z,92.20
2023-02-11T00:16:36.023Z,92.10
2023-02-11T00:19:06.093Z,91.90
2023-02-11T00:21:34.655Z,91.90
2023-02-11T00:24:02.821Z,91.90
2023-02-11T00:26:34.759Z,92.30
2023-02-11T00:29:03.237Z,92.60
2023-02-11T00:31:31.436Z,92.50
2023-02-11T00:33:59.477Z,92.70
2023-02-11T00:36:29.885Z,92.70
2023-02-11T00:38:59.237Z,92.40
2023-02-11T00:41:27.537Z,92.30
2023-02-11T00:43:57.070Z,92.70
2023-02-11T00:46:25.233Z,92.90
2023-02-11T00:48:55.070Z,93.00
2023-02-11T00:51:23.138Z,92.60
2023-02-11T00:53:51.218Z,92.70
2023-02-11T00:56:19.278Z,93.00
2023-02-11T00:58:47.261Z,92.90
2023-02-11T01:01:16.641Z,92.70
2023-02-11T01:03:44.605Z,92.10
2023-02-11T01:06:13.182Z,92.40
2023-02-11T01:08:41.522Z,92.60
2023-02-11T01:11:16.977Z,93.10
2023-02-11T01:13:45.394Z,93.40
2023-02-11T01:16:14.216Z,93.70
2023-02-11T01:18:44.432Z,93.60
2023-02-11T01:21:12.557Z,93.30
2023-02-11T01:23:40.511Z,93.10
2023-02-11T01:26:08.731Z,93.10
2023-02-11T01:28:36.796Z,93.20
2023-02-11T01:31:05.156Z,93.30
2023-02-11T01:33:33.197Z,93.30
2023-02-11T01:36:07.568Z,93.30
2023-02-11T01:38:36.391Z,93.10
2023-02-11T01:41:06.916Z,93.00
2023-02-11T01:43:37.510Z,92.90
2023-02-11T01:46:21.322Z,92.90
2023-02-11T01:48:52.550Z,92.30
2023-02-11T01:51:25.084Z,92.20
2023-02-11T01:54:11.323Z,92.50
2023-02-11T01:57:02.826Z,92.70
2023-02-11T01:59:35.753Z,92.90
2023-02-11T02:02:08.830Z,92.90
2023-02-11T02:04:42.834Z,92.90
2023-02-11T02:07:17.784Z,92.80
2023-02-11T02:09:52.965Z,92.80
2023-02-11T02:12:20.950Z,92.80
2023-02-11T02:14:48.897Z,92.80
2023-02-11T02:17:27.655Z,92.70
2023-02-11T02:20:31.782Z,92.60
2023-02-11T02:23:22.270Z,92.70
2023-02-11T02:26:36.845Z,93.10
2023-02-11T02:29:38.357Z,93.40
2023-02-11T02:32:24.494Z,93.20
2023-02-11T02:34:57.355Z,92.70
2023-02-11T02:37:30.093Z,92.90
2023-02-11T02:40:00.768Z,93.10
2023-02-11T02:42:29.384Z,93.00
2023-02-11T02:44:57.788Z,93.00
2023-02-11T02:47:27.250Z,92.90
2023-02-11T02:49:55.207Z,93.00
2023-02-11T02:52:36.316Z,93.40
2023-02-11T02:55:30.870Z,93.70
2023-02-11T02:58:25.884Z,93.50
2023-02-11T03:01:00.067Z,93.40
2023-02-11T03:03:36.920Z,93.40
2023-02-11T03:06:09.946Z,93.30
2023-02-11T03:08:42.344Z,93.10
2023-02-11T03:11:12.232Z,93.20
2023-02-11T03:13:42.060Z,92.70
2023-02-11T03:16:12.517Z,93.10
2023-02-11T03:18:46.011Z,92.70
2023-02-11T03:21:15.208Z,92.60
2023-02-11T03:23:48.864Z,92.70
2023-02-11T03:26:26.437Z,92.80
2023-02-11T03:29:00.288Z,93.10
2023-02-11T03:31:32.606Z,93.60
2023-02-11T03:34:07.178Z,94.00
2023-02-11T03:36:47.367Z,93.90
2023-02-11T03:39:20.809Z,93.80
2023-02-11T03:41:51.103Z,93.60
2023-02-11T03:44:21.271Z,93.50
2023-02-11T03:46:51.919Z,93.60
2023-02-11T03:49:24.127Z,93.40
2023-02-11T03:51:56.631Z,93.60
2023-02-11T03:54:28.755Z,93.60
2023-02-11T03:56:59.945Z,93.60
2023-02-11T03:59:28.294Z,93.80
2023-02-11T04:01:57.708Z,93.50
2023-02-11T04:04:27.136Z,93.20
2023-02-11T04:06:55.202Z,93.20
2023-02-11T04:09:23.161Z,93.10
2023-02-11T04:11:51.161Z,93.10
2023-02-11T04:14:19.112Z,93.10
2023-02-11T04:16:47.117Z,93.00
2023-02-11T04:19:15.095Z,92.80
2023-02-11T04:21:44.452Z,93.10
2023-02-11T04:24:12.453Z,93.50
2023-02-11T04:26:40.532Z,93.70
2023-02-11T04:29:08.470Z,93.70
2023-02-11T04:31:36.445Z,93.30
2023-02-11T04:34:04.457Z,93.40
2023-02-11T04:36:32.446Z,93.20
2023-02-11T04:39:01.791Z,93.20
2023-02-11T04:41:29.746Z,93.30
2023-02-11T04:43:57.883Z,93.10
2023-02-11T04:46:26.193Z,93.30
2023-02-11T04:48:54.231Z,93.20
2023-02-11T04:51:22.234Z,93.30
2023-02-11T04:53:50.179Z,93.60
2023-02-11T04:56:19.529Z,93.50
2023-02-11T04:58:47.608Z,93.50
2023-02-11T05:01:16.768Z,93.70
2023-02-11T05:03:44.886Z,94.00
2023-02-11T05:06:13.190Z,94.20
2023-02-11T05:08:41.416Z,94.20
2023-02-11T05:11:15.530Z,94.40
2023-02-11T05:13:45.133Z,94.10
2023-02-11T05:16:13.249Z,94.00
2023-02-11T05:18:43.276Z,93.90
2023-02-11T05:21:13.108Z,93.90
2023-02-11T05:23:41.488Z,93.70
2023-02-11T05:26:10.374Z,93.40
2023-02-11T05:28:39.074Z,93.20
2023-02-11T05:31:09.308Z,93.20
2023-02-11T05:33:38.012Z,93.50
2023-02-11T05:36:09.496Z,93.80
2023-02-11T05:38:38.419Z,93.60
2023-02-11T05:41:07.736Z,93.50
2023-02-11T05:43:36.688Z,93.20
2023-02-11T05:46:05.595Z,92.90
2023-02-11T05:48:35.126Z,93.00
2023-02-11T05:51:03.141Z,93.50
2023-02-11T05:53:31.134Z,93.80
2023-02-11T05:55:59.092Z,93.80
2023-02-11T05:58:27.290Z,93.10
2023-02-11T06:00:55.254Z,92.70
2023-02-11T06:03:23.310Z,93.00
2023-02-11T06:05:52.871Z,93.40
2023-02-11T06:08:21.071Z,93.70
2023-02-11T06:10:49.091Z,93.80
2023-02-11T06:13:18.656Z,93.50
2023-02-11T06:15:46.781Z,93.30
2023-02-11T06:18:14.742Z,93.50
2023-02-11T06:20:42.672Z,93.70
2023-02-11T06:23:13.134Z,93.80
2023-02-11T06:25:41.296Z,93.70
2023-02-11T06:28:10.707Z,93.50
2023-02-11T06:30:39.132Z,93.40
2023-02-11T06:33:07.112Z,93.30
2023-02-11T06:35:36.669Z,93.20
2023-02-11T06:38:04.637Z,93.00
2023-02-11T06:40:33.971Z,92.80
2023-02-11T06:43:01.963Z,92.80
2023-02-11T06:45:30.142Z,92.60
2023-02-11T06:47:58.184Z,92.50
2023-02-11T06:50:26.112Z,92.60
2023-02-11T06:52:54.081Z,92.50
2023-02-11T06:55:22.203Z,92.20
2023-02-11T06:57:51.494Z,92.20
2023-02-11T07:00:19.741Z,92.10
2023-02-11T07:02:47.732Z,92.10
2023-02-11T07:05:15.804Z,92.00
2023-02-11T07:07:43.881Z,92.10
2023-02-11T07:10:11.869Z,92.20
2023-02-11T07:12:39.816Z,92.50
2023-02-11T07:15:09.837Z,92.70
2023-02-11T07:17:37.834Z,92.70
2023-02-11T07:20:06.451Z,92.40
2023-02-11T07:22:35.714Z,92.30
2023-02-11T07:25:04.395Z,92.50
2023-02-11T07:27:32.372Z,92.30
2023-02-11T07:30:00.495Z,92.30
2023-02-11T07:32:29.992Z,92.20
2023-02-11T07:34:58.001Z,92.50
2023-02-11T07:37:26.067Z,92.50
2023-02-11T07:39:54.042Z,92.40
2023-02-11T07:42:22.120Z,92.40
2023-02-11T07:44:50.640Z,92.30
2023-02-11T07:47:19.160Z,91.40
2023-02-11T07:49:48.763Z,91.60
2023-02-11T07:52:16.773Z,90.90
2023-02-11T07:54:44.752Z,90.80
2023-02-11T07:57:12.867Z,90.70
2023-02-11T07:59:40.822Z,90.10
2023-02-11T08:02:09.980Z,90.40
2023-02-11T08:04:38.304Z,90.60
2023-02-11T08:07:07.674Z,91.00
2023-02-11T08:09:35.617Z,90.60
2023-02-11T08:12:03.705Z,90.80
2023-02-11T08:14:32.800Z,90.40
2023-02-11T08:17:00.776Z,90.30
2023-02-11T08:19:32.443Z,90.20
2023-02-11T08:22:01.934Z,90.30
2023-02-11T08:24:31.353Z,90.40
2023-02-11T08:26:59.356Z,90.20
2023-02-11T08:29:27.333Z,90.40
2023-02-11T08:31:55.431Z,90.30
2023-02-11T08:34:23.427Z,90.20
2023-02-11T08:36:51.895Z,90.00
2023-02-11T08:39:22.400Z,90.10
2023-02-11T08:41:54.471Z,90.30
2023-02-11T08:44:23.726Z,90.10
2023-02-11T08:46:52.722Z,90.00
2023-02-11T08:49:21.212Z,89.80
2023-02-11T08:51:49.342Z,90.10
2023-02-11T08:54:18.263Z,89.80
2023-02-11T08:56:46.528Z,89.30
2023-02-11T08:59:17.775Z,89.00
2023-02-11T09:01:47.181Z,88.90
2023-02-11T09:04:17.388Z,89.00
2023-02-11T09:06:45.654Z,88.10
2023-02-11T09:09:15.810Z,87.80
2023-02-11T09:11:45.000Z,88.00
2023-02-11T09:14:19.753Z,87.60
2023-02-11T09:16:48.081Z,87.70
2023-02-11T09:19:16.439Z,87.50
2023-02-11T09:21:44.450Z,87.90
2023-02-11T09:24:12.793Z,87.70
2023-02-11T09:26:43.183Z,87.60
2023-02-11T09:29:11.247Z,87.00
2023-02-11T09:31:40.756Z,87.00
2023-02-11T09:34:09.577Z,86.60
2023-02-11T09:36:39.760Z,86.80
2023-02-11T09:39:10.230Z,87.10
2023-02-11T09:41:50.585Z,86.70
2023-02-11T09:44:22.400Z,86.10
2023-02-11T09:46:57.023Z,84.50
2023-02-11T09:49:31.746Z,84.60
2023-02-11T09:52:06.189Z,84.20
2023-02-11T09:54:40.230Z,82.90
2023-02-11T09:57:22.855Z,83.30
2023-02-11T09:59:54.685Z,83.10
2023-02-11T10:02:30.923Z,82.20
2023-02-11T10:05:18.743Z,82.70
2023-02-11T10:07:52.496Z,82.00
2023-02-11T10:10:36.830Z,82.10
2023-02-11T10:13:37.054Z,82.20
2023-02-11T10:16:17.180Z,82.30
2023-02-11T10:19:05.262Z,82.70
2023-02-11T10:21:43.748Z,82.50
2023-02-11T10:24:15.462Z,82.10
2023-02-11T10:26:44.574Z,81.60
2023-02-11T10:29:20.131Z,81.50
2023-02-11T10:31:49.670Z,80.80
2023-02-11T10:34:19.086Z,80.10
2023-02-11T10:36:47.516Z,80.10
2023-02-11T10:39:18.760Z,79.50
2023-02-11T10:41:50.381Z,79.60
2023-02-11T10:44:25.826Z,79.80
2023-02-11T10:46:54.954Z,80.00
2023-02-11T10:49:39.965Z,79.90
2023-02-11T10:52:16.125Z,80.00
2023-02-11T10:54:56.810Z,80.00
2023-02-11T10:57:29.879Z,80.30
2023-02-11T11:00:00.327Z,80.40
2023-02-11T11:02:32.236Z,80.40
2023-02-11T11:05:04.294Z,80.60
2023-02-11T11:07:34.478Z,80.70
2023-02-11T11:10:05.692Z,79.30
2023-02-11T11:12:42.068Z,78.80
2023-02-11T11:15:22.270Z,78.60
2023-02-11T11:17:50.619Z,78.80
2023-02-11T11:20:27.394Z,77.50
2023-02-11T11:23:11.749Z,77.10
2023-02-11T11:25:42.593Z,77.30
2023-02-11T11:28:22.847Z,77.60
2023-02-11T11:30:53.123Z,77.30
2023-02-11T11:33:25.693Z,77.10
2023-02-11T11:36:05.037Z,77.50
2023-02-11T11:38:34.341Z,77.20
2023-02-11T11:41:20.369Z,76.50
2023-02-11T11:44:00.229Z,76.90
2023-02-11T11:46:31.592Z,77.00
2023-02-11T11:49:18.861Z,76.80
2023-02-11T11:51:55.963Z,76.50
2023-02-11T11:54:25.969Z,76.20
2023-02-11T11:57:00.202Z,75.00
2023-02-11T11:59:29.703Z,73.80
2023-02-11T12:02:18.262Z,71.40
2023-02-11T12:05:08.761Z,70.70
2023-02-11T12:07:49.489Z,70.00
2023-02-11T12:10:35.084Z,69.50
2023-02-11T12:13:18.394Z,69.10
2023-02-11T12:15:56.433Z,69.40
2023-02-11T12:18:44.331Z,70.20
2023-02-11T12:21:23.747Z,70.30
2023-02-11T12:24:17.642Z,69.90
2023-02-11T12:26:48.928Z,69.50
2023-02-11T12:29:28.168Z,68.80
2023-02-11T12:32:07.240Z,68.00
2023-02-11T12:35:06.738Z,68.40
2023-02-11T12:37:50.924Z,66.70
2023-02-11T12:40:28.589Z,65.80
2023-02-11T12:43:17.793Z,65.70
2023-02-11T12:46:17.215Z,65.90
2023-02-11T12:48:57.794Z,67.10
2023-02-11T12:51:35.052Z,64.70
2023-02-11T12:54:24.069Z,65.00
2023-02-11T12:57:02.347Z,64.40
2023-02-11T12:59:45.203Z,63.20
2023-02-11T13:02:22.923Z,63.10
2023-02-11T13:04:55.183Z,63.10
2023-02-11T13:07:29.116Z,63.70
2023-02-11T13:10:02.130Z,63.60
2023-02-11T13:12:52.266Z,63.10
2023-02-11T13:15:20.446Z,62.50
2023-02-11T13:17:58.211Z,62.80
2023-02-11T13:20:37.098Z,63.80
2023-02-11T13:23:20.070Z,64.40
2023-02-11T13:25:54.204Z,63.80
2023-02-11T13:28:36.613Z,63.70
2023-02-11T13:31:07.766Z,64.20
2023-02-11T13:33:37.554Z,64.60
2023-02-11T13:36:17.751Z,64.30
2023-02-11T13:38:55.716Z,63.20
2023-02-11T13:41:28.972Z,62.30
2023-02-11T13:44:22.713Z,62.10
2023-02-11T13:46:58.288Z,61.10
2023-02-11T13:49:31.491Z,61.10
2023-02-11T13:52:01.318Z,60.50
2023-02-11T13:54:34.619Z,59.90
2023-02-11T13:57:28.234Z,60.00
2023-02-11T13:59:58.924Z,59.90
2023-02-11T14:02:49.959Z,59.50
2023-02-11T14:05:47.346Z,59.30
2023-02-11T14:08:53.073Z,59.10
2023-02-11T14:11:49.996Z,59.10
2023-02-11T14:14:24.010Z,59.00
2023-02-11T14:17:21.569Z,59.40
2023-02-11T14:19:52.766Z,59.20
2023-02-11T14:22:26.016Z,59.60
2023-02-11T14:24:57.694Z,59.60
2023-02-11T14:27:31.202Z,60.90
2023-02-11T14:30:20.718Z,62.20
2023-02-11T14:33:17.409Z,62.60
2023-02-11T14:35:59.045Z,62.90
2023-02-11T14:38:35.826Z,63.60
2023-02-11T14:41:08.538Z,63.90
2023-02-11T14:43:40.309Z,63.40
2023-02-11T14:46:08.629Z,64.20
2023-02-11T14:48:38.737Z,63.60
2023-02-11T14:51:11.426Z,63.90
2023-02-11T14:53:44.511Z,64.20
2023-02-11T14:56:20.078Z,64.70
2023-02-11T14:58:49.670Z,65.60
2023-02-11T15:01:31.173Z,65.10
2023-02-11T15:04:01.397Z,64.50
2023-02-11T15:06:33.780Z,65.20
2023-02-11T15:09:06.673Z,65.70
2023-02-11T15:11:39.800Z,65.50
2023-02-11T15:14:11.971Z,66.60
2023-02-11T15:16:43.898Z,67.90
2023-02-11T15:19:26.755Z,68.10
2023-02-11T15:21:56.941Z,68.40
2023-02-11T15:24:28.047Z,68.30
2023-02-11T15:27:02.741Z,68.60
2023-02-11T15:29:37.465Z,69.00
2023-02-11T15:32:07.884Z,69.30
2023-02-11T15:34:36.294Z,69.80
2023-02-11T15:37:06.343Z,70.10
2023-02-11T15:39:37.551Z,70.50
2023-02-11T15:42:23.305Z,71.00
2023-02-11T15:45:09.540Z,71.30
2023-02-11T15:47:37.909Z,71.30
2023-02-11T15:50:07.295Z,71.70
2023-02-11T15:52:36.798Z,72.00
2023-02-11T15:55:05.085Z,73.00
2023-02-11T15:57:35.431Z,73.40
2023-02-11T16:00:07.191Z,73.80
2023-02-11T16:02:38.695Z,73.50
2023-02-11T16:05:10.014Z,73.40
2023-02-11T16:07:45.594Z,73.80
2023-02-11T16:10:25.832Z,74.60
2023-02-11T16:13:03.863Z,75.00
2023-02-11T16:15:50.707Z,75.70
2023-02-11T16:18:37.795Z,75.50
2023-02-11T16:21:08.658Z,75.40
2023-02-11T16:23:42.086Z,75.70
2023-02-11T16:26:14.114Z,76.10
2023-02-11T16:28:42.607Z,76.90
2023-02-11T16:31:10.741Z,77.30
2023-02-11T16:33:39.005Z,77.70
2023-02-11T16:36:13.407Z,78.40
2023-02-11T16:38:42.711Z,78.70
2023-02-11T16:41:11.906Z,79.20
2023-02-11T16:43:40.168Z,78.40
2023-02-11T16:46:09.318Z,78.70
2023-02-11T16:48:38.756Z,79.90
2023-02-11T16:51:09.299Z,80.40
2023-02-11T16:53:37.262Z,78.20
2023-02-11T16:56:07.268Z,78.50
2023-02-11T16:58:35.237Z,78.90
2023-02-11T17:01:03.375Z,79.30
2023-02-11T17:03:36.204Z,79.10
2023-02-11T17:06:05.820Z,79.20
2023-02-11T17:08:33.915Z,79.60
2023-02-11T17:11:01.935Z,79.70
2023-02-11T17:13:31.224Z,79.40
2023-02-11T17:15:59.512Z,79.20
2023-02-11T17:18:27.537Z,79.90
2023-02-11T17:20:55.483Z,80.70
2023-02-11T17:23:23.422Z,81.20
2023-02-11T17:25:57.368Z,81.50
2023-02-11T17:28:25.445Z,81.40
2023-02-11T17:30:54.975Z,81.00
2023-02-11T17:33:23.293Z,81.00
2023-02-11T17:35:51.813Z,81.90
2023-02-11T17:38:19.946Z,82.50
2023-02-11T17:40:47.902Z,82.70
2023-02-11T17:43:16.212Z,82.30
2023-02-11T17:45:44.346Z,82.40
2023-02-11T17:48:13.687Z,83.20
2023-02-11T17:50:41.657Z,83.80
2023-02-11T17:53:11.647Z,84.30
2023-02-11T17:55:39.799Z,85.20
2023-02-11T17:58:07.855Z,85.60
2023-02-11T18:00:36.238Z,85.80
2023-02-11T18:03:04.526Z,86.10
2023-02-11T18:05:37.470Z,86.50
2023-02-11T18:08:07.292Z,86.60
2023-02-11T18:10:35.400Z,86.00
2023-02-11T18:13:03.375Z,85.90
2023-02-11T18:15:31.396Z,86.60
2023-02-11T18:17:59.371Z,85.60
2023-02-11T18:20:27.384Z,85.00
2023-02-11T18:22:56.704Z,85.40
2023-02-11T18:25:25.251Z,86.70
2023-02-11T18:27:53.227Z,88.40
2023-02-11T18:30:22.136Z,89.50
2023-02-11T18:32:54.693Z,86.40
2023-02-11T18:35:23.058Z,86.00
2023-02-11T18:37:52.171Z,88.50
2023-02-11T18:40:21.723Z,89.90
2023-02-11T18:42:49.756Z,88.40
2023-02-11T18:45:17.729Z,87.60
2023-02-11T18:47:45.769Z,87.60
2023-02-11T18:50:15.640Z,87.80
2023-02-11T18:52:43.827Z,88.60
2023-02-11T18:55:11.901Z,89.50
2023-02-11T18:57:41.216Z,90.00
2023-02-11T19:00:11.031Z,88.80
2023-02-11T19:02:39.041Z,87.90
2023-02-11T19:05:07.650Z,90.20
2023-02-11T19:07:35.709Z,90.30
2023-02-11T19:10:03.900Z,90.00
2023-02-11T19:12:33.153Z,89.70
2023-02-11T19:15:02.501Z,89.20
2023-02-11T19:17:30.547Z,88.20
2023-02-11T19:19:58.564Z,87.90
2023-02-11T19:22:26.594Z,89.00
2023-02-11T19:24:54.534Z,90.00
2023-02-11T19:27:22.691Z,89.40
2023-02-11T19:29:50.686Z,89.50
2023-02-11T19:32:20.015Z,89.50
2023-02-11T19:34:48.133Z,90.50
2023-02-11T19:37:16.142Z,90.70
2023-02-11T19:39:44.798Z,90.00
2023-02-11T19:42:13.460Z,90.30
2023-02-11T19:44:41.641Z,91.00
2023-02-11T19:47:10.361Z,91.00
2023-02-11T19:49:39.696Z,90.70
2023-02-11T19:52:07.716Z,90.30
2023-02-11T19:54:35.769Z,90.10
2023-02-11T19:57:03.779Z,90.80
2023-02-11T19:59:31.793Z,91.20
2023-02-11T20:02:01.491Z,91.30
2023-02-11T20:04:32.102Z,91.60
2023-02-11T20:07:01.555Z,90.80
2023-02-11T20:09:31.155Z,90.70
2023-02-11T20:11:59.482Z,91.40
2023-02-11T20:14:28.168Z,91.20
2023-02-11T20:16:56.309Z,91.00
2023-02-11T20:19:24.481Z,91.10
2023-02-11T20:21:55.524Z,90.90
2023-02-11T20:24:25.511Z,90.90
2023-02-11T20:26:56.095Z,91.10
2023-02-11T20:29:25.541Z,91.50
2023-02-11T20:31:54.297Z,91.10
2023-02-11T20:34:22.465Z,91.10
2023-02-11T20:36:52.765Z,91.80
2023-02-11T20:39:22.735Z,91.90
2023-02-11T20:41:53.697Z,91.60
2023-02-11T20:44:22.751Z,91.70
2023-02-11T20:46:51.827Z,91.80
2023-02-11T20:49:22.747Z,91.40
2023-02-11T20:51:53.668Z,91.30
2023-02-11T20:54:22.699Z,92.20
2023-02-11T20:56:55.640Z,92.40
2023-02-11T20:59:23.905Z,91.90
2023-02-11T21:01:55.352Z,91.80
2023-02-11T21:04:26.062Z,91.90
2023-02-11T21:06:57.293Z,92.20
2023-02-11T21:09:28.560Z,91.80
2023-02-11T21:11:58.414Z,91.90
2023-02-11T21:14:27.984Z,92.30
2023-02-11T21:16:56.222Z,92.10
2023-02-11T21:19:24.312Z,92.00
2023-02-11T21:21:52.535Z,92.50
2023-02-11T21:24:20.477Z,92.80
2023-02-11T21:26:48.543Z,92.90
2023-02-11T21:29:17.854Z,92.80
2023-02-11T21:31:46.264Z,92.80
2023-02-11T21:34:16.146Z,92.90
2023-02-11T21:36:45.438Z,93.20
2023-02-11T21:39:13.999Z,93.40
2023-02-11T21:41:41.987Z,93.30
2023-02-11T21:44:10.149Z,93.00
2023-02-11T21:46:39.542Z,92.80
2023-02-11T21:49:07.609Z,92.80
2023-02-11T21:51:35.598Z,93.10
2023-02-11T21:54:04.373Z,92.90
2023-02-11T21:56:34.306Z,93.00
2023-02-11T21:59:02.303Z,93.10
2023-02-11T22:01:31.688Z,93.00
2023-02-11T22:04:01.475Z,92.80
2023-02-11T22:06:32.484Z,93.00
2023-02-11T22:09:03.180Z,93.30
2023-02-11T22:11:31.140Z,93.20
2023-02-11T22:13:59.140Z,93.10
2023-02-11T22:16:27.926Z,92.90
2023-02-11T22:18:58.655Z,92.70
2023-02-11T22:21:28.292Z,93.00
2023-02-11T22:23:56.939Z,93.30
2023-02-11T22:26:26.797Z,93.20
2023-02-11T22:28:55.091Z,93.00
2023-02-11T22:31:25.084Z,93.70
2023-02-11T22:33:53.502Z,93.30
2023-02-11T22:36:23.807Z,93.10
2023-02-11T22:38:54.368Z,92.90
2023-02-11T22:41:23.434Z,92.90
2023-02-11T22:43:51.557Z,92.90
2023-02-11T22:46:20.757Z,93.00
2023-02-11T22:48:49.552Z,93.30
2023-02-11T22:51:20.407Z,93.40
2023-02-11T22:53:54.101Z,92.70
2023-02-11T22:56:23.300Z,93.30
2023-02-11T22:58:52.138Z,93.20
2023-02-11T23:01:21.297Z,93.70
2023-02-11T23:03:49.440Z,94.00
2023-02-11T23:06:18.164Z,93.80
2023-02-11T23:08:46.569Z,93.70
2023-02-11T23:11:18.196Z,93.90
2023-02-11T23:13:48.016Z,94.10
2023-02-11T23:16:18.592Z,94.40
2023-02-11T23:18:47.419Z,94.50
2023-02-11T23:21:18.751Z,94.50
2023-02-11T23:23:46.909Z,94.30
2023-02-11T23:26:19.260Z,94.30
2023-02-11T23:28:48.111Z,94.40
2023-02-11T23:31:18.304Z,94.80
2023-02-11T23:33:46.795Z,94.80
2023-02-11T23:36:15.374Z,94.60
2023-02-11T23:38:43.496Z,94.10
2023-02-11T23:41:11.879Z,94.20
2023-02-11T23:43:41.250Z,94.30
2023-02-11T23:46:10.105Z,94.50
2023-02-11T23:48:40.314Z,94.70
2023-02-11T23:51:09.670Z,94.70
2023-02-11T23:53:38.207Z,94.50
2023-02-11T23:56:09.447Z,94.40
2023-02-11T23:58:37.881Z,94.50
